Accueil
METAR-TAF:

METAR-TAF

Aéroports :

Aéroport de Paris-Orly

Paris-Orly, France

latitude: 48-44N, longitude: 002-24E, altitude: 89 m

Observation

Le bulletin a été fait il y a 15 minutes, à 12:00 UTC
Vent 1 kt de sud
Température 13°C
Humidité 51%
Pression 1027 hPa
Visibilité 10 km ou plus
pas de nuages en-dessous de 1500 mètres et pas de cumulonimbus.

METAR: LFPO 161200Z 19001KT CAVOK 13/03 Q1027 NOSIG

Heure: 13:15 (12:15 UTC)

Prévision

Le bulletin a été fait il y a 1 heure et 15 minutes, à 11:00 UTC
Prévision valable du 16 à 12 UTC au 17 à 18 UTC
Vent 4 kt de sud
Visibilité 10 km ou plus
pas de nuages en-dessous de 1500 mètres et pas de cumulonimbus.
Temporairement
du 16 à 23 UTC au 17 à 08 UTC
Visibilité: 2500 m
brume
Probabilité 30% :
Temporairement
du 17 à 03 UTC au 17 à 07 UTC
Visibilité: 0400 m
bancs de brouillard

TAF: LFPO 161100Z 1612/1718 18004KT CAVOK TEMPO 1623/1708 2500 BR PROB30 TEMPO 1703/1707 0400 BCFG

Observations et prévisions météorologiques de plus de 4000 aéroports (messages METAR et TAF).

Les stations disponibles sont représentées par des disques jaunes et rouges sur la carte.

Passer la souris dessus pour voir le nom de la station.

Cliquer dessus pour voir les observations et prévisions météorologiques.

Pour changer de carte: cliquez sur les boutons verts avec une croix noire pour zoomer, sur le bouton vert avec un tiret pour effectuer un zoom arrière, ou sur les flèches vertes pour les cartes adjacentes.


METAR-TAF: